createdAt,value
2018-06-04T00:00:33.645Z,91.47
2018-06-04T00:03:02.689Z,91.89
2018-06-04T00:05:31.641Z,90.86
2018-06-04T00:08:00.594Z,91.43
2018-06-04T00:10:29.587Z,91.25
2018-06-04T00:12:58.627Z,91.40
2018-06-04T00:15:27.609Z,91.10
2018-06-04T00:17:56.653Z,91.23
2018-06-04T00:20:25.601Z,91.87
2018-06-04T00:22:54.639Z,91.57
2018-06-04T00:25:23.621Z,92.04
2018-06-04T00:27:52.676Z,92.00
2018-06-04T00:30:21.748Z,92.03
2018-06-04T00:32:50.761Z,92.59
2018-06-04T00:35:19.751Z,91.97
2018-06-04T00:40:40.095Z,92.21
2018-06-04T00:43:09.081Z,92.09
2018-06-04T00:45:38.135Z,92.33
2018-06-04T00:48:07.128Z,93.09
2018-06-04T00:50:36.118Z,92.40
2018-06-04T00:53:05.144Z,91.80
2018-06-04T00:55:44.354Z,92.29
2018-06-04T00:58:14.477Z,92.08
2018-06-04T01:00:44.380Z,92.26
2018-06-04T01:03:13.348Z,92.40
2018-06-04T01:05:42.357Z,92.51
2018-06-04T01:08:11.404Z,93.15
2018-06-04T01:10:40.453Z,92.25
2018-06-04T01:13:09.519Z,92.73
2018-06-04T01:15:38.528Z,92.24
2018-06-04T01:18:07.487Z,92.58
2018-06-04T01:20:37.065Z,92.93
2018-06-04T01:23:06.038Z,92.79
2018-06-04T01:25:35.007Z,92.58
2018-06-04T01:28:04.092Z,92.10
2018-06-04T01:30:33.083Z,92.71
2018-06-04T01:33:02.161Z,91.74
2018-06-04T01:35:31.152Z,92.83
2018-06-04T01:38:00.140Z,93.15
2018-06-04T01:40:29.164Z,92.92
2018-06-04T01:42:58.140Z,92.25
2018-06-04T01:45:27.200Z,93.01
2018-06-04T01:47:56.231Z,93.15
2018-06-04T01:50:26.010Z,92.67
2018-06-04T01:52:54.993Z,92.77
2018-06-04T01:55:24.098Z,91.99
2018-06-04T01:57:53.077Z,92.64
2018-06-04T02:00:22.089Z,92.42
2018-06-04T02:02:51.068Z,92.27
2018-06-04T02:05:20.062Z,91.85
2018-06-04T02:07:49.044Z,91.93
2018-06-04T02:12:50.127Z,91.99
2018-06-04T02:15:19.150Z,91.32
2018-06-04T02:17:48.125Z,92.00
2018-06-04T02:20:17.191Z,91.02
2018-06-04T02:22:46.889Z,91.40
2018-06-04T02:25:15.936Z,90.81
2018-06-04T02:27:44.970Z,90.11
2018-06-04T02:30:13.981Z,90.24
2018-06-04T02:32:42.988Z,90.12
2018-06-04T02:35:12.150Z,91.05
2018-06-04T02:37:41.206Z,90.94
2018-06-04T02:40:10.290Z,90.68
2018-06-04T02:42:39.372Z,91.30
2018-06-04T02:45:08.362Z,90.85
2018-06-04T02:47:37.351Z,91.26
2018-06-04T02:50:06.365Z,90.79
2018-06-04T02:52:35.451Z,90.61
2018-06-04T02:55:04.412Z,91.25
2018-06-04T02:57:33.399Z,90.75
2018-06-04T03:00:02.390Z,91.27
2018-06-04T03:02:31.339Z,91.63
2018-06-04T03:05:00.360Z,91.13
2018-06-04T03:07:29.980Z,90.50
2018-06-04T03:09:59.017Z,91.70
2018-06-04T03:12:27.991Z,92.30
2018-06-04T03:14:56.970Z,91.87
2018-06-04T03:17:26.246Z,91.57
2018-06-04T03:19:55.254Z,91.57
2018-06-04T03:22:24.218Z,92.16
2018-06-04T03:24:53.191Z,91.93
2018-06-04T03:27:22.172Z,92.17
2018-06-04T03:29:51.161Z,91.97
2018-06-04T03:32:20.136Z,92.45
2018-06-04T03:34:49.169Z,91.57
2018-06-04T03:37:18.151Z,91.83
2018-06-04T03:39:47.158Z,92.22
2018-06-04T03:42:16.135Z,91.76
2018-06-04T03:44:45.140Z,91.73
2018-06-04T03:47:14.180Z,92.28
2018-06-04T03:49:43.179Z,91.33
2018-06-04T03:52:12.196Z,91.90
2018-06-04T03:54:41.192Z,92.43
2018-06-04T03:57:10.227Z,92.32
2018-06-04T03:59:39.232Z,92.07
2018-06-04T04:02:08.288Z,92.41
2018-06-04T04:04:37.351Z,92.39
2018-06-04T04:07:06.339Z,91.78
2018-06-04T04:09:35.369Z,91.93
2018-06-04T04:12:04.358Z,91.33
2018-06-04T04:14:33.341Z,91.81
2018-06-04T04:17:02.364Z,92.27
2018-06-04T04:19:31.353Z,91.87
2018-06-04T04:22:00.340Z,91.62
2018-06-04T04:24:29.334Z,91.68
2018-06-04T04:26:58.543Z,91.40
2018-06-04T04:29:27.799Z,90.42
2018-06-04T04:31:56.770Z,90.27
2018-06-04T04:34:25.784Z,90.99
2018-06-04T04:36:54.783Z,90.31
2018-06-04T04:39:23.783Z,90.11
2018-06-04T04:41:52.753Z,90.18
2018-06-04T04:44:21.765Z,90.14
2018-06-04T04:46:50.771Z,89.94
2018-06-04T04:49:19.764Z,89.33
2018-06-04T04:51:49.256Z,89.92
2018-06-04T04:54:18.243Z,89.51
2018-06-04T04:56:47.361Z,89.33
2018-06-04T04:59:16.347Z,89.35
2018-06-04T05:01:45.373Z,88.66
2018-06-04T05:04:14.454Z,88.26
2018-06-04T05:06:43.571Z,88.22
2018-06-04T05:09:12.680Z,87.82
2018-06-04T05:11:41.671Z,88.48
2018-06-04T05:14:11.694Z,87.15
2018-06-04T05:16:40.695Z,87.70
2018-06-04T05:19:09.752Z,87.60
2018-06-04T05:21:38.837Z,87.30
2018-06-04T05:24:07.828Z,86.14
2018-06-04T05:26:36.872Z,86.30
2018-06-04T05:29:05.876Z,85.39
2018-06-04T05:31:34.856Z,85.42
2018-06-04T05:34:03.822Z,84.91
2018-06-04T05:36:32.902Z,84.30
2018-06-04T05:39:01.892Z,83.95
2018-06-04T05:41:30.891Z,83.66
2018-06-04T05:43:59.908Z,81.10
2018-06-04T05:46:28.941Z,80.79
2018-06-04T05:48:58.557Z,79.98
2018-06-04T05:51:27.574Z,79.49
2018-06-04T05:53:56.531Z,77.66
2018-06-04T05:56:25.505Z,78.41
2018-06-04T05:58:54.478Z,77.89
2018-06-04T06:01:24.394Z,77.78
2018-06-04T06:03:53.387Z,76.96
2018-06-04T06:06:22.386Z,73.97
2018-06-04T06:08:51.995Z,68.54
2018-06-04T06:11:20.991Z,64.59
2018-06-04T06:13:49.970Z,63.60
2018-06-04T06:16:19.947Z,64.26
2018-06-04T06:18:48.977Z,59.41
2018-06-04T06:21:17.972Z,56.55
2018-06-04T06:23:47.012Z,53.87
2018-06-04T06:26:16.381Z,53.92
2018-06-04T06:28:45.364Z,54.51
2018-06-04T06:31:14.404Z,54.09
2018-06-04T06:33:43.417Z,50.93
2018-06-04T06:36:12.411Z,50.53
2018-06-04T06:38:41.444Z,50.20
2018-06-04T06:41:10.718Z,48.19
2018-06-04T06:43:39.716Z,48.13
2018-06-04T06:46:08.992Z,51.75
2018-06-04T06:48:38.053Z,53.62
2018-06-04T06:51:07.315Z,54.06
2018-06-04T06:53:36.297Z,53.10
2018-06-04T06:56:05.556Z,51.57
2018-06-04T06:58:34.567Z,49.58
2018-06-04T07:01:03.747Z,49.14
2018-06-04T07:03:32.707Z,49.05
2018-06-04T07:06:01.968Z,47.23
2018-06-04T07:08:30.953Z,47.87
2018-06-04T07:11:00.183Z,45.26
2018-06-04T07:13:29.152Z,44.96
2018-06-04T07:15:58.276Z,47.96
2018-06-04T07:18:27.346Z,50.50
2018-06-04T07:20:56.420Z,52.53
2018-06-04T07:23:25.553Z,51.40
2018-06-04T07:25:54.621Z,50.87
2018-06-04T07:28:23.619Z,50.44
2018-06-04T07:30:52.589Z,50.88
2018-06-04T07:33:21.749Z,47.48
2018-06-04T07:35:50.754Z,47.84
2018-06-04T07:38:19.761Z,47.73
2018-06-04T07:40:48.894Z,49.71
2018-06-04T07:43:17.911Z,51.13
2018-06-04T07:45:46.907Z,52.56
2018-06-04T07:48:15.898Z,53.17
2018-06-04T07:50:44.928Z,49.83
2018-06-04T07:53:13.923Z,49.77
2018-06-04T07:55:43.013Z,51.68
2018-06-04T07:58:12.088Z,47.08
2018-06-04T08:00:41.333Z,46.27
2018-06-04T08:03:10.456Z,49.83
2018-06-04T08:05:39.489Z,50.28
2018-06-04T08:08:08.499Z,48.02
2018-06-04T08:10:37.652Z,46.72
2018-06-04T08:13:06.690Z,42.70
2018-06-04T08:15:35.664Z,43.79
2018-06-04T08:18:04.749Z,44.24
2018-06-04T08:20:33.700Z,42.99
2018-06-04T08:23:02.708Z,40.84
2018-06-04T08:25:31.678Z,42.66
2018-06-04T08:28:00.719Z,42.59
2018-06-04T08:30:29.702Z,41.53
2018-06-04T08:32:58.686Z,42.26
2018-06-04T08:35:27.707Z,40.59
2018-06-04T08:37:56.755Z,39.91
2018-06-04T08:40:25.763Z,41.00
2018-06-04T08:42:54.748Z,41.96
2018-06-04T08:45:23.764Z,41.64
2018-06-04T08:47:52.750Z,41.87
2018-06-04T08:50:21.734Z,42.43
2018-06-04T08:52:50.835Z,42.97
2018-06-04T08:55:19.896Z,43.74
2018-06-04T08:57:48.945Z,45.76
2018-06-04T09:00:17.928Z,45.09
2018-06-04T09:02:46.909Z,43.61
2018-06-04T09:05:15.912Z,45.86
2018-06-04T09:07:44.931Z,42.89
2018-06-04T09:10:13.948Z,45.36
2018-06-04T09:12:42.918Z,44.62
2018-06-04T09:15:13.073Z,43.19
2018-06-04T09:17:42.106Z,42.25
2018-06-04T09:20:11.081Z,40.59
2018-06-04T09:22:40.088Z,39.45
2018-06-04T09:25:09.111Z,38.60
2018-06-04T09:27:38.081Z,39.18
2018-06-04T09:30:07.454Z,38.66
2018-06-04T09:32:36.441Z,36.61
2018-06-04T09:35:05.455Z,37.92
2018-06-04T09:37:34.560Z,41.13
2018-06-04T09:40:03.558Z,42.24
2018-06-04T09:42:32.533Z,41.61
2018-06-04T09:45:01.580Z,41.79
2018-06-04T09:47:30.565Z,37.40
2018-06-04T09:49:59.546Z,39.22
2018-06-04T09:52:28.676Z,40.26
2018-06-04T09:54:57.671Z,39.41
2018-06-04T09:57:26.738Z,40.67
2018-06-04T09:59:57.618Z,42.47
2018-06-04T10:02:26.688Z,38.80
2018-06-04T10:04:55.677Z,43.40
2018-06-04T10:07:24.702Z,42.72
2018-06-04T10:09:53.740Z,39.20
2018-06-04T10:12:24.014Z,42.83
2018-06-04T10:14:53.063Z,39.77
2018-06-04T10:17:22.037Z,39.46
2018-06-04T10:19:51.006Z,38.24
2018-06-04T10:22:19.999Z,40.09
2018-06-04T10:24:48.971Z,36.24
2018-06-04T10:27:17.977Z,35.19
2018-06-04T10:29:46.930Z,35.98
2018-06-04T10:32:15.960Z,37.82
2018-06-04T10:34:45.003Z,32.36
2018-06-04T10:37:13.969Z,35.04
2018-06-04T10:39:42.954Z,32.98
2018-06-04T10:42:11.941Z,33.63
2018-06-04T10:44:40.995Z,35.35
2018-06-04T10:47:09.995Z,36.08
2018-06-04T10:49:38.995Z,35.03
2018-06-04T10:52:08.005Z,35.03
2018-06-04T10:54:36.988Z,37.90
2018-06-04T10:57:05.966Z,36.89
2018-06-04T10:59:34.992Z,33.56
2018-06-04T11:02:03.956Z,36.24
2018-06-04T11:04:32.959Z,37.87
2018-06-04T11:07:01.915Z,38.64
2018-06-04T11:09:30.915Z,40.99
2018-06-04T11:11:59.960Z,40.98
2018-06-04T11:14:28.926Z,40.31
2018-06-04T11:16:57.935Z,39.11
2018-06-04T11:19:26.945Z,37.09
2018-06-04T11:21:55.915Z,34.87
2018-06-04T11:24:24.882Z,33.99
2018-06-04T11:26:53.924Z,36.54
2018-06-04T11:29:22.867Z,36.82
2018-06-04T11:31:51.869Z,39.32
2018-06-04T11:34:20.847Z,38.70
2018-06-04T11:36:49.828Z,41.44
2018-06-04T11:39:18.823Z,42.49
2018-06-04T11:41:47.870Z,43.01
2018-06-04T11:44:16.841Z,41.89
2018-06-04T11:46:46.026Z,43.24
2018-06-04T11:49:16.007Z,41.35
2018-06-04T11:51:45.055Z,42.79
2018-06-04T11:54:14.373Z,42.79
2018-06-04T11:56:43.375Z,42.80
2018-06-04T11:59:12.305Z,42.39
2018-06-04T12:01:41.408Z,42.89
2018-06-04T12:04:10.327Z,41.64
2018-06-04T12:06:39.352Z,42.66
2018-06-04T12:09:08.482Z,41.38
2018-06-04T12:11:37.527Z,42.93
2018-06-04T12:14:06.492Z,42.49
2018-06-04T12:16:35.520Z,45.21
2018-06-04T12:19:04.557Z,45.16
2018-06-04T12:21:33.595Z,42.83
2018-06-04T12:24:02.569Z,40.50
2018-06-04T12:26:31.604Z,41.22
2018-06-04T12:29:00.580Z,41.30
2018-06-04T12:31:29.558Z,42.34
2018-06-04T12:33:58.564Z,41.46
2018-06-04T12:36:27.517Z,39.67
2018-06-04T12:38:56.562Z,35.98
2018-06-04T12:41:25.592Z,38.30
2018-06-04T12:43:54.612Z,32.58
2018-06-04T12:46:23.565Z,34.63
2018-06-04T12:48:52.630Z,33.10
2018-06-04T12:51:21.631Z,30.35
2018-06-04T12:53:50.632Z,29.89
2018-06-04T12:56:19.611Z,31.94
2018-06-04T12:58:48.615Z,30.17
2018-06-04T13:01:17.623Z,30.84
2018-06-04T13:03:46.667Z,31.78
2018-06-04T13:06:16.759Z,31.17
2018-06-04T13:08:45.740Z,29.95
2018-06-04T13:11:14.770Z,32.51
2018-06-04T13:13:43.739Z,32.42
2018-06-04T13:16:12.788Z,30.58
2018-06-04T13:18:41.770Z,31.84
2018-06-04T13:21:10.754Z,31.91
2018-06-04T13:23:39.702Z,30.60
2018-06-04T13:26:08.696Z,31.12
2018-06-04T13:28:37.664Z,30.72
2018-06-04T13:31:06.815Z,30.82
2018-06-04T13:33:35.799Z,29.54
2018-06-04T13:36:04.796Z,31.15
2018-06-04T13:38:38.208Z,31.04
2018-06-04T13:41:07.450Z,30.45
2018-06-04T13:43:36.449Z,32.32
2018-06-04T13:46:05.499Z,30.88
2018-06-04T13:48:34.510Z,31.59
2018-06-04T13:51:03.513Z,32.22
2018-06-04T13:53:32.576Z,33.72
2018-06-04T13:56:01.669Z,34.43
2018-06-04T13:58:30.601Z,34.10
2018-06-04T14:00:59.590Z,34.94
2018-06-04T14:03:28.645Z,37.15
2018-06-04T14:05:57.618Z,35.13
2018-06-04T14:08:26.879Z,33.86
2018-06-04T14:10:56.251Z,33.18
2018-06-04T14:13:25.250Z,33.42
2018-06-04T14:15:54.213Z,34.25
2018-06-04T14:18:23.283Z,35.31
2018-06-04T14:20:52.382Z,38.30
2018-06-04T14:23:21.372Z,40.37
2018-06-04T14:25:50.432Z,40.17
2018-06-04T14:28:19.444Z,40.91
2018-06-04T14:30:48.443Z,44.28
2018-06-04T14:33:17.611Z,45.42
2018-06-04T14:35:46.743Z,44.72
2018-06-04T14:38:15.846Z,45.92
2018-06-04T14:40:44.826Z,46.49
2018-06-04T14:43:13.986Z,45.32
2018-06-04T14:45:42.952Z,44.43
2018-06-04T14:48:14.816Z,45.49
2018-06-04T14:50:44.956Z,44.25
2018-06-04T14:53:14.046Z,41.96
2018-06-04T14:55:43.079Z,42.58
2018-06-04T14:58:12.114Z,44.61
2018-06-04T15:00:41.144Z,43.89
2018-06-04T15:03:10.103Z,43.43
2018-06-04T15:05:39.075Z,44.03
2018-06-04T15:08:08.036Z,44.67
2018-06-04T15:10:37.017Z,47.42
2018-06-04T15:13:06.028Z,45.53
2018-06-04T15:15:35.009Z,46.18
2018-06-04T15:18:05.057Z,46.51
2018-06-04T15:20:34.080Z,47.44
2018-06-04T15:23:03.115Z,46.17
2018-06-04T15:25:32.168Z,47.29
2018-06-04T15:28:01.228Z,45.80
2018-06-04T15:30:30.396Z,47.61
2018-06-04T15:32:59.517Z,48.12
2018-06-04T15:35:28.666Z,47.52
2018-06-04T15:37:57.732Z,48.13
2018-06-04T15:40:26.720Z,47.38
2018-06-04T15:42:55.731Z,48.31
2018-06-04T15:45:24.806Z,45.61
2018-06-04T15:47:53.887Z,48.49
2018-06-04T15:50:22.978Z,46.49
2018-06-04T15:52:52.036Z,46.93
2018-06-04T15:55:21.066Z,47.45
2018-06-04T15:57:50.072Z,46.53
2018-06-04T16:00:19.079Z,47.92
2018-06-04T16:02:48.167Z,45.76
2018-06-04T16:05:17.280Z,44.75
2018-06-04T16:07:46.436Z,44.53
2018-06-04T16:10:22.069Z,42.87
2018-06-04T16:12:51.103Z,46.11
2018-06-04T16:15:20.121Z,42.88
2018-06-04T16:17:49.088Z,43.85
2018-06-04T16:20:18.076Z,43.49
2018-06-04T16:22:47.167Z,43.31
2018-06-04T16:25:16.183Z,45.26
2018-06-04T16:27:45.310Z,44.73
2018-06-04T16:30:14.377Z,42.76
2018-06-04T16:32:43.515Z,44.68
2018-06-04T16:35:12.666Z,42.66
2018-06-04T16:37:41.659Z,42.49
2018-06-04T16:40:10.759Z,43.49
2018-06-04T16:42:39.887Z,45.27
2018-06-04T16:45:09.230Z,44.75
2018-06-04T16:47:38.287Z,45.06
2018-06-04T16:50:07.321Z,41.59
2018-06-04T16:52:36.429Z,44.58
2018-06-04T16:55:05.423Z,43.04
2018-06-04T16:57:34.427Z,43.87
2018-06-04T17:00:03.461Z,44.72
2018-06-04T17:02:32.697Z,43.89
2018-06-04T17:05:02.061Z,42.88
2018-06-04T17:07:31.101Z,43.55
2018-06-04T17:10:00.138Z,46.04
2018-06-04T17:12:29.196Z,45.53
2018-06-04T17:14:58.194Z,45.77
2018-06-04T17:17:27.854Z,46.03
2018-06-04T17:19:56.945Z,45.97
2018-06-04T17:22:25.903Z,47.02
2018-06-04T17:24:54.952Z,45.92
2018-06-04T17:27:24.008Z,47.31
2018-06-04T17:29:53.031Z,47.86
2018-06-04T17:32:22.043Z,48.38
2018-06-04T17:34:51.040Z,48.21
2018-06-04T17:37:20.116Z,49.12
2018-06-04T17:39:49.243Z,49.62
2018-06-04T17:42:18.290Z,49.28
2018-06-04T17:44:47.351Z,49.98
2018-06-04T17:47:16.308Z,49.79
2018-06-04T17:49:45.351Z,50.19
2018-06-04T17:52:14.333Z,50.18
2018-06-04T17:54:43.297Z,50.61
2018-06-04T17:57:12.328Z,50.40
2018-06-04T17:59:41.300Z,50.43
2018-06-04T18:02:10.300Z,50.86
2018-06-04T18:04:39.313Z,51.09
2018-06-04T18:07:08.332Z,51.28
2018-06-04T18:09:37.505Z,52.73
2018-06-04T18:12:06.602Z,50.99
2018-06-04T18:14:35.699Z,52.43
2018-06-04T18:17:04.757Z,52.71
2018-06-04T18:19:33.783Z,51.46
2018-06-04T18:22:03.200Z,53.28
2018-06-04T18:24:32.425Z,53.21
2018-06-04T18:27:01.716Z,54.68
2018-06-04T18:29:30.794Z,53.86
2018-06-04T18:31:59.878Z,54.49
2018-06-04T18:34:30.281Z,56.05
2018-06-04T18:36:59.273Z,54.69
2018-06-04T18:39:28.244Z,55.42
2018-06-04T18:41:57.242Z,56.55
2018-06-04T18:44:28.712Z,57.28
2018-06-04T18:46:57.713Z,56.92
2018-06-04T18:49:26.710Z,57.40
2018-06-04T18:51:55.778Z,58.35
2018-06-04T18:54:24.773Z,58.80
2018-06-04T18:56:53.742Z,59.87
2018-06-04T18:59:22.735Z,60.11
2018-06-04T19:01:51.725Z,59.77
2018-06-04T19:04:20.748Z,60.82
2018-06-04T19:06:49.763Z,60.63
2018-06-04T19:09:18.808Z,60.67
2018-06-04T19:11:47.743Z,61.09
2018-06-04T19:14:16.720Z,61.10
2018-06-04T19:16:45.710Z,61.98
2018-06-04T19:19:14.786Z,62.03
2018-06-04T19:21:43.756Z,62.05
2018-06-04T19:24:12.904Z,62.68
2018-06-04T19:26:41.921Z,63.33
2018-06-04T19:29:10.897Z,64.62
2018-06-04T19:31:39.876Z,64.49
2018-06-04T19:34:09.034Z,64.08
2018-06-04T19:36:38.053Z,64.33
2018-06-04T19:39:08.933Z,64.54
2018-06-04T19:41:38.011Z,64.57
2018-06-04T19:44:07.214Z,65.05
2018-06-04T19:46:36.331Z,65.91
2018-06-04T19:49:05.725Z,65.61
2018-06-04T19:51:34.726Z,65.84
2018-06-04T19:54:03.754Z,66.45
2018-06-04T19:56:32.775Z,67.42
2018-06-04T19:59:01.766Z,66.51
2018-06-04T20:01:30.771Z,66.48
2018-06-04T20:04:01.557Z,66.60
2018-06-04T20:06:30.791Z,67.92
2018-06-04T20:08:59.865Z,66.31
2018-06-04T20:11:28.859Z,67.16
2018-06-04T20:13:57.839Z,66.47
2018-06-04T20:16:26.889Z,67.39
2018-06-04T20:18:55.883Z,66.71
2018-06-04T20:21:24.884Z,67.58
2018-06-04T20:23:53.989Z,67.73
2018-06-04T20:26:22.945Z,68.75
2018-06-04T20:28:52.065Z,69.25
2018-06-04T20:31:21.068Z,68.71
2018-06-04T20:33:50.050Z,69.22
2018-06-04T20:36:19.014Z,68.07
2018-06-04T20:38:48.025Z,68.51
2018-06-04T20:41:17.107Z,68.49
2018-06-04T20:43:46.247Z,69.17
2018-06-04T20:46:15.330Z,68.82
2018-06-04T20:48:44.409Z,69.98
2018-06-04T20:51:13.561Z,68.35
2018-06-04T20:53:42.589Z,69.68
2018-06-04T20:56:11.726Z,69.90
2018-06-04T20:58:40.732Z,69.06
2018-06-04T21:01:09.829Z,69.19
2018-06-04T21:03:38.837Z,70.53
2018-06-04T21:06:07.870Z,70.69
2018-06-04T21:08:36.886Z,70.64
2018-06-04T21:11:06.000Z,70.33
2018-06-04T21:13:35.124Z,70.65
2018-06-04T21:16:04.111Z,70.13
2018-06-04T21:18:33.147Z,70.27
2018-06-04T21:21:02.200Z,69.20
2018-06-04T21:23:31.636Z,69.91
2018-06-04T21:26:00.736Z,70.62
2018-06-04T21:28:29.669Z,69.81
2018-06-04T21:30:58.641Z,70.46
2018-06-04T21:33:27.625Z,71.44
2018-06-04T21:35:56.692Z,70.59
2018-06-04T21:38:25.721Z,70.97
2018-06-04T21:40:54.895Z,71.52
2018-06-04T21:43:23.962Z,72.31
2018-06-04T21:45:55.994Z,71.98
2018-06-04T21:48:25.244Z,72.33
2018-06-04T21:50:54.341Z,72.82
2018-06-04T21:53:23.345Z,73.01
2018-06-04T21:55:52.322Z,72.81
2018-06-04T21:58:21.323Z,73.46
2018-06-04T22:00:50.393Z,73.19
2018-06-04T22:03:19.390Z,73.78
2018-06-04T22:05:48.518Z,74.44
2018-06-04T22:08:17.757Z,75.04
2018-06-04T22:10:46.743Z,75.28
2018-06-04T22:13:15.739Z,74.63
2018-06-04T22:15:44.753Z,75.06
2018-06-04T22:18:13.852Z,75.24
2018-06-04T22:20:43.231Z,75.29
2018-06-04T22:23:12.331Z,75.30
2018-06-04T22:25:41.810Z,76.70
2018-06-04T22:28:10.847Z,76.52
2018-06-04T22:30:40.048Z,75.99
2018-06-04T22:33:09.532Z,76.71
2018-06-04T22:35:38.579Z,76.47
2018-06-04T22:38:07.819Z,77.30
2018-06-04T22:40:36.809Z,76.71
2018-06-04T22:43:05.823Z,77.61
2018-06-04T22:45:35.283Z,77.21
2018-06-04T22:48:04.445Z,77.49
2018-06-04T22:50:33.451Z,77.16
2018-06-04T22:53:02.467Z,78.23
2018-06-04T22:55:31.530Z,78.24
2018-06-04T22:58:01.451Z,77.34
2018-06-04T23:00:33.105Z,78.72
2018-06-04T23:03:02.211Z,78.87
2018-06-04T23:05:31.316Z,78.62
2018-06-04T23:08:01.099Z,79.22
2018-06-04T23:10:30.142Z,79.74
2018-06-04T23:12:59.132Z,79.47
2018-06-04T23:15:28.095Z,79.35
2018-06-04T23:17:57.117Z,78.67
2018-06-04T23:20:26.297Z,78.89
2018-06-04T23:22:55.392Z,79.23
2018-06-04T23:25:24.414Z,78.44
2018-06-04T23:27:53.368Z,79.10
2018-06-04T23:30:22.372Z,79.39
2018-06-04T23:32:51.353Z,79.59
2018-06-04T23:35:20.587Z,80.42
2018-06-04T23:37:49.620Z,79.46
2018-06-04T23:40:18.757Z,78.88
2018-06-04T23:42:47.859Z,78.88
2018-06-04T23:45:16.887Z,79.59
2018-06-04T23:47:46.161Z,79.51
2018-06-04T23:50:15.928Z,79.76
2018-06-04T23:52:45.029Z,79.58
2018-06-04T23:55:14.183Z,79.65
2018-06-04T23:57:43.159Z,78.46
